Scout — WCZ2046 — position and weather

sailwx.info

Track history (hours):
 
Tides and Currents Weather Stations Pressure Air Temp Water Temp Dewpoint Dewpoint Depression Visibility Wind Speed Wind Dir Waves Ship Positions

Scout

Owner: Crowley Marine Services, SEATTLE, WA. More information available from US FCC via Universal Licensing System and Coast Guard Vessel Documentation Center.

Last reported at 2017-Apr-30 16:01 UTC. Time now 2017-May-01 04:11 UTC.
Position N 32°42' W 117°10'.

; draft 5.6 m.

Type: Tug. MMSI: 366764730.

Date/timePositionNaut miles runAvg speedWind from/ knotsBaromVisibWave heightAir tempDewpointWater temp
2017-Apr-30 16:01N 32°42' W 117°10'110.0
2017-Apr-30 15:58N 32°42' W 117°10'3 7.0
2017-Apr-30 15:30N 32°42' W 117°14'0 0.1
2017-Apr-30 15:00N 32°42' W 117°14'3 6.1
2017-Apr-30 14:30N 32°42' W 117°11'0 0.0
2017-Apr-29 15:44N 32°43' W 117°11'2 8.7
2017-Apr-29 15:30N 32°43' W 117°13'1 2.2
2017-Apr-29 15:00N 32°42' W 117°14'1 1.3
2017-Apr-29 14:00N 32°41' W 117°14'3 6.1
2017-Apr-29 13:30N 32°43' W 117°11'2 0.4
2017-Apr-29 08:41N 32°42' W 117°09'0 0.0
2017-Apr-29 08:30N 32°42' W 117°09'0 0.0
2017-Apr-29 01:16N 32°42' W 117°09'0 1.6
2017-Apr-29 01:00N 32°42' W 117°10'3 4.6
2017-Apr-29 00:16N 32°39' W 117°07'1 1.6
2017-Apr-28 23:55N 32°40' W 117°08'3 0.2
2017-Apr-28 10:09N 32°42' W 117°10'0 2.1
2017-Apr-28 09:56N 32°42' W 117°10'1 2.6
2017-Apr-28 09:30N 32°43' W 117°11'2 0.3
2017-Apr-28 01:28N 32°42' W 117°09'3 6.2
2017-Apr-28 01:01N 32°39' W 117°07'1 1.1
2017-Apr-28 00:30N 32°39' W 117°07'3 4.1
2017-Apr-27 23:50N 32°41' W 117°09'1 0.1
2017-Apr-27 19:43N 32°42' W 117°09'2 8.4
2017-Apr-27 19:26N 32°40' W 117°07'1 1.0
2017-Apr-27 18:34N 32°41' W 117°08'1 8.5
2017-Apr-27 18:29N 32°41' W 117°08'0 0.1
2017-Apr-27 13:56N 32°41' W 117°08'2 3.0
2017-Apr-27 13:24N 32°39' W 117°07'0 0.2
2017-Apr-27 12:20N 32°39' W 117°07'2 6.0
2017-Apr-27 11:59N 32°41' W 117°08'1 0.1
2017-Apr-27 03:47N 32°42' W 117°09'3 5.0
2017-Apr-27 03:16N 32°39' W 117°07'1 1.9
2017-Apr-27 02:57N 32°40' W 117°08'2 0.1
2017-Apr-26 01:39N 32°42' W 117°09'1 5.3
2017-Apr-26 01:24N 32°41' W 117°08'2 4.2
2017-Apr-26 00:59N 32°39' W 117°07'0 0.0
2017-Apr-26 00:30N 32°39' W 117°07'2 2.8
2017-Apr-25 23:55N 32°41' W 117°08'1 0.2
2017-Apr-25 17:54N 32°42' W 117°09'0 0.0
2017-Apr-25 17:28N 32°42' W 117°09'0 0.0
2017-Apr-25 17:00N 32°42' W 117°09'0 0.0
2017-Apr-25 16:30N 32°42' W 117°09'0 0.0
2017-Apr-25 15:59N 32°42' W 117°09'0 0.0
2017-Apr-25 15:16N 32°42' W 117°09'0 0.0
2017-Apr-25 14:57N 32°42' W 117°09'0 0.0
2017-Apr-25 13:58N 32°42' W 117°09'3 5.3
2017-Apr-25 13:24N 32°39' W 117°07'1 1.3
2017-Apr-25 13:00N 32°40' W 117°08'3 3.8
2017-Apr-25 12:20N 32°42' W 117°09'0 0.0
2017-Apr-25 11:59N 32°42' W 117°09'0 0.0
2017-Apr-25 10:30N 32°42' W 117°09'0 0.0
2017-Apr-25 09:52N 32°42' W 117°09'0 0.0
2017-Apr-25 09:29N 32°42' W 117°09'0 0.0
2017-Apr-25 08:57N 32°42' W 117°09'0 0.0
2017-Apr-25 08:21N 32°42' W 117°09'0 0.0
2017-Apr-25 07:51N 32°42' W 117°09'0 0.0
2017-Apr-25 06:36N 32°42' W 117°09'0 0.3
2017-Apr-25 06:26N 32°42' W 117°09'3 7.0
2017-Apr-25 06:00N 32°39' W 117°07'2 3.7
2017-Apr-25 05:28N 32°41' W 117°08'1 0.3
2017-Apr-25 02:01N 32°42' W 117°09'0 0.8
2017-Apr-25 01:57N 32°42' W 117°09'0 0.0
2017-Apr-24 22:21N 32°42' W 117°09'0 0.0
2017-Apr-24 21:01N 32°42' W 117°09'0 0.0
2017-Apr-24 20:58N 32°42' W 117°09'0 0.0
2017-Apr-24 17:01N 32°42' W 117°09'0 0.0
2017-Apr-24 16:57N 32°42' W 117°09'0 0.0
2017-Apr-24 16:30N 32°42' W 117°09'0 0.1
2017-Apr-24 15:58N 32°42' W 117°09'0 0.0
2017-Apr-24 15:30N 32°42' W 117°09'0 0.1
2017-Apr-24 15:00N 32°42' W 117°09'0 0.0
2017-Apr-24 14:30N 32°42' W 117°09'2 1.8
2017-Apr-24 13:29N 32°40' W 117°08'1 1.6
2017-Apr-24 12:55N 32°39' W 117°07'2 4.5
2017-Apr-24 12:30N 32°41' W 117°09'1 0.7
2017-Apr-24 11:22N 32°42' W 117°09'0 0.0
2017-Apr-24 11:01N 32°42' W 117°09'0 0.0
2017-Apr-24 08:38N 32°42' W 117°09'0 0.0
2017-Apr-24 08:30N 32°42' W 117°09'0 0.0
2017-Apr-24 05:17N 32°42' W 117°09'0 0.0
2017-Apr-24 04:57N 32°42' W 117°09'0 0.1
2017-Apr-24 04:26N 32°42' W 117°09'0 0.0
2017-Apr-23 22:57N 32°42' W 117°09'1 1.2
2017-Apr-23 22:28N 32°41' W 117°09'3 5.2
2017-Apr-23 21:59N 32°39' W 117°07'2 4.5
2017-Apr-23 21:30N 32°41' W 117°09'1 0.9
2017-Apr-23 20:38N 32°42' W 117°09'1 8.3
2017-Apr-23 20:29N 32°41' W 117°08'2 4.3
2017-Apr-23 19:58N 32°39' W 117°07'3 4.7
2017-Apr-23 19:24N 32°41' W 117°09'1 0.3
2017-Apr-23 16:44N 32°42' W 117°09'0 0.3
2017-Apr-23 16:22N 32°42' W 117°09'0 0.1
2017-Apr-23 15:55N 32°42' W 117°09'2 6.0
2017-Apr-23 15:30N 32°40' W 117°08'1 0.8
2017-Apr-23 14:41N 32°39' W 117°07'2 2.1
2017-Apr-23 13:55N 32°41' W 117°08'0 0.1
2017-Apr-23 13:28N 32°41' W 117°08'1 1.6
2017-Apr-23 12:45N 32°40' W 117°07'1 5.7
2017-Apr-23 12:30N 32°41' W 117°08'1 1.3
2017-Apr-23 11:34N 32°42' W 117°09'0 0.0
2017-Apr-23 11:22N 32°42' W 117°09'0 0.0
2017-Apr-23 11:00N 32°42' W 117°09'0 0.0
2017-Apr-23 10:28N 32°42' W 117°09'0 0.0
2017-Apr-23 10:00N 32°42' W 117°09'0 0.0
2017-Apr-23 07:13N 32°42' W 117°09'0 0.0
2017-Apr-23 06:55N 32°42' W 117°09'0 0.0
2017-Apr-23 06:28N 32°42' W 117°09'0 0.0
2017-Apr-23 06:00N 32°42' W 117°09'0 0.0
2017-Apr-23 05:26N 32°42' W 117°09'0 0.0
2017-Apr-23 05:00N 32°42' W 117°09'0 0.1
2017-Apr-23 04:30N 32°42' W 117°09'0 0.1
2017-Apr-23 03:56N 32°42' W 117°09'1 1.1
2017-Apr-23 02:59N 32°41' W 117°08'0 0.2
2017-Apr-23 01:59N 32°41' W 117°08'0 0.1
2017-Apr-23 01:27N 32°41' W 117°08'0 0.2
2017-Apr-23 01:00N 32°41' W 117°08'1 1.2
2017-Apr-23 00:29N 32°42' W 117°09'0 0.1
2017-Apr-22 17:34N 32°42' W 117°09'0 4.9
2017-Apr-22 17:30N 32°42' W 117°10'1 0.2
2017-Apr-22 15:03N 32°42' W 117°09'0 0.0
2017-Apr-22 14:47N 32°42' W 117°09'0 0.0
2017-Apr-22 14:29N 32°42' W 117°09'0 0.0
2017-Apr-22 13:09N 32°42' W 117°09'0 0.1
2017-Apr-22 12:48N 32°42' W 117°09'0 0.0
2017-Apr-22 10:40N 32°42' W 117°09'0 0.0
2017-Apr-22 08:32N 32°42' W 117°09'0 0.0
2017-Apr-22 08:26N 32°42' W 117°09'0 0.0
2017-Apr-22 04:42N 32°42' W 117°09'0 0.1
2017-Apr-22 03:34N 32°42' W 117°09'0 0.0
2017-Apr-22 03:11N 32°42' W 117°09'0 0.2
2017-Apr-22 02:56N 32°42' W 117°09'0 0.0
2017-Apr-22 02:30N 32°42' W 117°09'0 0.0
2017-Apr-22 01:57N 32°42' W 117°09'0 0.0
2017-Apr-22 01:28N 32°42' W 117°09'0 0.1
2017-Apr-21 23:42N 32°42' W 117°09'2 7.8
2017-Apr-21 23:27N 32°40' W 117°08'2 0.2
2017-Apr-21 14:47N 32°42' W 117°09'0 0.0
2017-Apr-21 14:30N 32°42' W 117°09'3 3.0
2017-Apr-21 13:30N 32°39' W 117°07'2 3.7
2017-Apr-21 13:00N 32°41' W 117°08'1 1.7
2017-Apr-21 12:20N 32°42' W 117°09'0 0.0
2017-Apr-21 00:45N 32°42' W 117°09'2 7.3
2017-Apr-21 00:30N 32°40' W 117°08'1 2.0
2017-Apr-20 23:59N 32°39' W 117°07'0 0.0
2017-Apr-20 22:36N 32°39' W 117°07'0 0.0
2017-Apr-20 22:29N 32°39' W 117°07'0 0.4
2017-Apr-20 21:37N 32°40' W 117°08'2 8.4
2017-Apr-20 21:25N 32°41' W 117°09'  
Track history (hours):
 
Tides and Currents Weather Stations Pressure Air Temp Water Temp Dewpoint Dewpoint Depression Visibility Wind Speed Wind Dir Waves Ship Positions

Scout

Owner: Crowley Marine Services, SEATTLE, WA. More information available from US FCC via Universal Licensing System and Coast Guard Vessel Documentation Center.

Last reported at 2017-Apr-30 16:01 UTC. Time now 2017-May-01 04:11 UTC.
Position N 32°42' W 117°10'.

; draft 5.6 m.

Type: Tug. MMSI: 366764730.

Date/timePositionNaut miles runAvg speedWind from/ knotsBaromVisibWave heightAir tempDewpointWater temp
2017-Apr-30 16:01N 32°42' W 117°10'110.0
2017-Apr-30 15:58N 32°42' W 117°10'3 7.0
2017-Apr-30 15:30N 32°42' W 117°14'0 0.1
2017-Apr-30 15:00N 32°42' W 117°14'3 6.1
2017-Apr-30 14:30N 32°42' W 117°11'0 0.0
2017-Apr-29 15:44N 32°43' W 117°11'2 8.7
2017-Apr-29 15:30N 32°43' W 117°13'1 2.2
2017-Apr-29 15:00N 32°42' W 117°14'1 1.3
2017-Apr-29 14:00N 32°41' W 117°14'3 6.1
2017-Apr-29 13:30N 32°43' W 117°11'2 0.4
2017-Apr-29 08:41N 32°42' W 117°09'0 0.0
2017-Apr-29 08:30N 32°42' W 117°09'0 0.0
2017-Apr-29 01:16N 32°42' W 117°09'0 1.6
2017-Apr-29 01:00N 32°42' W 117°10'3 4.6
2017-Apr-29 00:16N 32°39' W 117°07'1 1.6
2017-Apr-28 23:55N 32°40' W 117°08'3 0.2
2017-Apr-28 10:09N 32°42' W 117°10'0 2.1
2017-Apr-28 09:56N 32°42' W 117°10'1 2.6
2017-Apr-28 09:30N 32°43' W 117°11'2 0.3
2017-Apr-28 01:28N 32°42' W 117°09'3 6.2
2017-Apr-28 01:01N 32°39' W 117°07'1 1.1
2017-Apr-28 00:30N 32°39' W 117°07'3 4.1
2017-Apr-27 23:50N 32°41' W 117°09'1 0.1
2017-Apr-27 19:43N 32°42' W 117°09'2 8.4
2017-Apr-27 19:26N 32°40' W 117°07'1 1.0
2017-Apr-27 18:34N 32°41' W 117°08'1 8.5
2017-Apr-27 18:29N 32°41' W 117°08'0 0.1
2017-Apr-27 13:56N 32°41' W 117°08'2 3.0
2017-Apr-27 13:24N 32°39' W 117°07'0 0.2
2017-Apr-27 12:20N 32°39' W 117°07'2 6.0
2017-Apr-27 11:59N 32°41' W 117°08'1 0.1
2017-Apr-27 03:47N 32°42' W 117°09'3 5.0
2017-Apr-27 03:16N 32°39' W 117°07'1 1.9
2017-Apr-27 02:57N 32°40' W 117°08'2 0.1
2017-Apr-26 01:39N 32°42' W 117°09'1 5.3
2017-Apr-26 01:24N 32°41' W 117°08'2 4.2
2017-Apr-26 00:59N 32°39' W 117°07'0 0.0
2017-Apr-26 00:30N 32°39' W 117°07'2 2.8
2017-Apr-25 23:55N 32°41' W 117°08'1 0.2
2017-Apr-25 17:54N 32°42' W 117°09'0 0.0
2017-Apr-25 17:28N 32°42' W 117°09'0 0.0
2017-Apr-25 17:00N 32°42' W 117°09'0 0.0
2017-Apr-25 16:30N 32°42' W 117°09'0 0.0
2017-Apr-25 15:59N 32°42' W 117°09'0 0.0
2017-Apr-25 15:16N 32°42' W 117°09'0 0.0
2017-Apr-25 14:57N 32°42' W 117°09'0 0.0
2017-Apr-25 13:58N 32°42' W 117°09'3 5.3
2017-Apr-25 13:24N 32°39' W 117°07'1 1.3
2017-Apr-25 13:00N 32°40' W 117°08'3 3.8
2017-Apr-25 12:20N 32°42' W 117°09'0 0.0
2017-Apr-25 11:59N 32°42' W 117°09'0 0.0
2017-Apr-25 10:30N 32°42' W 117°09'0 0.0
2017-Apr-25 09:52N 32°42' W 117°09'0 0.0
2017-Apr-25 09:29N 32°42' W 117°09'0 0.0
2017-Apr-25 08:57N 32°42' W 117°09'0 0.0
2017-Apr-25 08:21N 32°42' W 117°09'0 0.0
2017-Apr-25 07:51N 32°42' W 117°09'0 0.0
2017-Apr-25 06:36N 32°42' W 117°09'0 0.3
2017-Apr-25 06:26N 32°42' W 117°09'3 7.0
2017-Apr-25 06:00N 32°39' W 117°07'2 3.7
2017-Apr-25 05:28N 32°41' W 117°08'1 0.3
2017-Apr-25 02:01N 32°42' W 117°09'0 0.8
2017-Apr-25 01:57N 32°42' W 117°09'0 0.0
2017-Apr-24 22:21N 32°42' W 117°09'0 0.0
2017-Apr-24 21:01N 32°42' W 117°09'0 0.0
2017-Apr-24 20:58N 32°42' W 117°09'0 0.0
2017-Apr-24 17:01N 32°42' W 117°09'0 0.0
2017-Apr-24 16:57N 32°42' W 117°09'0 0.0
2017-Apr-24 16:30N 32°42' W 117°09'0 0.1
2017-Apr-24 15:58N 32°42' W 117°09'0 0.0
2017-Apr-24 15:30N 32°42' W 117°09'0 0.1
2017-Apr-24 15:00N 32°42' W 117°09'0 0.0
2017-Apr-24 14:30N 32°42' W 117°09'2 1.8
2017-Apr-24 13:29N 32°40' W 117°08'1 1.6
2017-Apr-24 12:55N 32°39' W 117°07'2 4.5
2017-Apr-24 12:30N 32°41' W 117°09'1 0.7
2017-Apr-24 11:22N 32°42' W 117°09'0 0.0
2017-Apr-24 11:01N 32°42' W 117°09'0 0.0
2017-Apr-24 08:38N 32°42' W 117°09'0 0.0
2017-Apr-24 08:30N 32°42' W 117°09'0 0.0
2017-Apr-24 05:17N 32°42' W 117°09'0 0.0
2017-Apr-24 04:57N 32°42' W 117°09'0 0.1
2017-Apr-24 04:26N 32°42' W 117°09'0 0.0
2017-Apr-23 22:57N 32°42' W 117°09'1 1.2
2017-Apr-23 22:28N 32°41' W 117°09'3 5.2
2017-Apr-23 21:59N 32°39' W 117°07'2 4.5
2017-Apr-23 21:30N 32°41' W 117°09'1 0.9
2017-Apr-23 20:38N 32°42' W 117°09'1 8.3
2017-Apr-23 20:29N 32°41' W 117°08'2 4.3
2017-Apr-23 19:58N 32°39' W 117°07'3 4.7
2017-Apr-23 19:24N 32°41' W 117°09'1 0.3
2017-Apr-23 16:44N 32°42' W 117°09'0 0.3
2017-Apr-23 16:22N 32°42' W 117°09'0 0.1
2017-Apr-23 15:55N 32°42' W 117°09'2 6.0
2017-Apr-23 15:30N 32°40' W 117°08'1 0.8
2017-Apr-23 14:41N 32°39' W 117°07'2 2.1
2017-Apr-23 13:55N 32°41' W 117°08'0 0.1
2017-Apr-23 13:28N 32°41' W 117°08'1 1.6
2017-Apr-23 12:45N 32°40' W 117°07'1 5.7
2017-Apr-23 12:30N 32°41' W 117°08'1 1.3
2017-Apr-23 11:34N 32°42' W 117°09'0 0.0
2017-Apr-23 11:22N 32°42' W 117°09'0 0.0
2017-Apr-23 11:00N 32°42' W 117°09'0 0.0
2017-Apr-23 10:28N 32°42' W 117°09'0 0.0
2017-Apr-23 10:00N 32°42' W 117°09'0 0.0
2017-Apr-23 07:13N 32°42' W 117°09'0 0.0
2017-Apr-23 06:55N 32°42' W 117°09'0 0.0
2017-Apr-23 06:28N 32°42' W 117°09'0 0.0
2017-Apr-23 06:00N 32°42' W 117°09'0 0.0
2017-Apr-23 05:26N 32°42' W 117°09'0 0.0
2017-Apr-23 05:00N 32°42' W 117°09'0 0.1
2017-Apr-23 04:30N 32°42' W 117°09'0 0.1
2017-Apr-23 03:56N 32°42' W 117°09'1 1.1
2017-Apr-23 02:59N 32°41' W 117°08'0 0.2
2017-Apr-23 01:59N 32°41' W 117°08'0 0.1
2017-Apr-23 01:27N 32°41' W 117°08'0 0.2
2017-Apr-23 01:00N 32°41' W 117°08'1 1.2
2017-Apr-23 00:29N 32°42' W 117°09'0 0.1
2017-Apr-22 17:34N 32°42' W 117°09'0 4.9
2017-Apr-22 17:30N 32°42' W 117°10'1 0.2
2017-Apr-22 15:03N 32°42' W 117°09'0 0.0
2017-Apr-22 14:47N 32°42' W 117°09'0 0.0
2017-Apr-22 14:29N 32°42' W 117°09'0 0.0
2017-Apr-22 13:09N 32°42' W 117°09'0 0.1
2017-Apr-22 12:48N 32°42' W 117°09'0 0.0
2017-Apr-22 10:40N 32°42' W 117°09'0 0.0
2017-Apr-22 08:32N 32°42' W 117°09'0 0.0
2017-Apr-22 08:26N 32°42' W 117°09'0 0.0
2017-Apr-22 04:42N 32°42' W 117°09'0 0.1
2017-Apr-22 03:34N 32°42' W 117°09'0 0.0
2017-Apr-22 03:11N 32°42' W 117°09'0 0.2
2017-Apr-22 02:56N 32°42' W 117°09'0 0.0
2017-Apr-22 02:30N 32°42' W 117°09'0 0.0
2017-Apr-22 01:57N 32°42' W 117°09'0 0.0
2017-Apr-22 01:28N 32°42' W 117°09'0 0.1
2017-Apr-21 23:42N 32°42' W 117°09'2 7.8
2017-Apr-21 23:27N 32°40' W 117°08'2 0.2
2017-Apr-21 14:47N 32°42' W 117°09'0 0.0
2017-Apr-21 14:30N 32°42' W 117°09'3 3.0
2017-Apr-21 13:30N 32°39' W 117°07'2 3.7
2017-Apr-21 13:00N 32°41' W 117°08'1 1.7
2017-Apr-21 12:20N 32°42' W 117°09'0 0.0
2017-Apr-21 00:45N 32°42' W 117°09'2 7.3
2017-Apr-21 00:30N 32°40' W 117°08'1 2.0
2017-Apr-20 23:59N 32°39' W 117°07'0 0.0
2017-Apr-20 22:36N 32°39' W 117°07'0 0.0
2017-Apr-20 22:29N 32°39' W 117°07'0 0.4
2017-Apr-20 21:37N 32°40' W 117°08'2 8.4
2017-Apr-20 21:25N 32°41' W 117°09'  

Dump ship's entire track history